createdAt,value
2023-04-15T00:00:48.767Z,5.40
2023-04-15T00:03:36.541Z,5.20
2023-04-15T00:06:23.945Z,5.30
2023-04-15T00:09:11.493Z,5.20
2023-04-15T00:11:58.953Z,5.10
2023-04-15T00:14:46.244Z,5.10
2023-04-15T00:17:33.568Z,5.20
2023-04-15T00:20:21.080Z,5.10
2023-04-15T00:23:08.672Z,5.20
2023-04-15T00:25:56.033Z,5.30
2023-04-15T00:28:44.474Z,5.10
2023-04-15T00:31:31.848Z,5.10
2023-04-15T00:34:19.511Z,5.00
2023-04-15T00:37:06.922Z,5.10
2023-04-15T00:39:54.451Z,5.20
2023-04-15T00:42:41.869Z,5.00
2023-04-15T00:45:29.426Z,4.70
2023-04-15T00:48:17.585Z,4.90
2023-04-15T00:51:05.257Z,4.60
2023-04-15T00:53:52.597Z,4.50
2023-04-15T00:56:39.976Z,4.70
2023-04-15T00:59:27.307Z,4.70
2023-04-15T01:02:15.050Z,4.70
2023-04-15T01:05:02.836Z,4.60
2023-04-15T01:07:50.122Z,4.50
2023-04-15T01:10:38.012Z,4.40
2023-04-15T01:13:25.552Z,4.50
2023-04-15T01:16:13.899Z,4.60
2023-04-15T01:19:02.357Z,4.60
2023-04-15T01:21:50.028Z,4.60
2023-04-15T01:24:38.507Z,4.30
2023-04-15T01:27:26.467Z,4.20
2023-04-15T01:30:15.714Z,4.20
2023-04-15T01:33:05.292Z,4.30
2023-04-15T01:35:52.851Z,4.30
2023-04-15T01:38:40.289Z,4.10
2023-04-15T01:41:28.507Z,4.10
2023-04-15T01:44:15.996Z,4.20
2023-04-15T01:47:03.478Z,4.20
2023-04-15T01:49:51.022Z,4.20
2023-04-15T01:52:38.307Z,4.00
2023-04-15T01:55:25.691Z,3.90
2023-04-15T01:58:12.913Z,3.90
2023-04-15T02:01:00.299Z,4.10
2023-04-15T02:03:48.137Z,4.00
2023-04-15T02:06:36.539Z,4.10
2023-04-15T02:09:23.806Z,4.10
2023-04-15T02:12:11.525Z,4.10
2023-04-15T02:14:59.362Z,4.20
2023-04-15T02:17:51.034Z,4.10
2023-04-15T02:20:39.823Z,3.90
2023-04-15T02:23:27.407Z,3.70
2023-04-15T02:26:14.791Z,3.80
2023-04-15T02:29:02.767Z,3.80
2023-04-15T02:31:50.326Z,3.90
2023-04-15T02:34:41.299Z,3.80
2023-04-15T02:37:30.737Z,3.80
2023-04-15T02:40:18.994Z,3.90
2023-04-15T02:43:09.059Z,3.90
2023-04-15T02:45:56.618Z,3.80
2023-04-15T02:48:44.049Z,3.70
2023-04-15T02:51:32.400Z,3.80
2023-04-15T02:54:20.158Z,3.70
2023-04-15T02:57:08.270Z,3.60
2023-04-15T02:59:55.889Z,3.60
2023-04-15T03:02:43.861Z,3.50
2023-04-15T03:05:31.639Z,3.60
2023-04-15T03:08:21.298Z,3.60
2023-04-15T03:11:08.649Z,3.40
2023-04-15T03:13:57.464Z,3.40
2023-04-15T03:16:54.750Z,3.30
2023-04-15T03:19:42.079Z,3.30
2023-04-15T03:22:29.890Z,3.40
2023-04-15T03:25:17.723Z,3.40
2023-04-15T03:28:05.336Z,3.60
2023-04-15T03:30:53.697Z,3.50
2023-04-15T03:33:41.390Z,3.60
2023-04-15T03:36:34.610Z,3.80
2023-04-15T03:39:21.884Z,4.00
2023-04-15T03:42:09.273Z,4.10
2023-04-15T03:44:56.826Z,4.10
2023-04-15T03:47:44.275Z,4.20
2023-04-15T03:50:31.946Z,4.10
2023-04-15T03:53:19.333Z,4.10
2023-04-15T03:56:06.830Z,4.00
2023-04-15T03:58:54.113Z,3.90
2023-04-15T04:01:41.482Z,3.90
2023-04-15T04:04:32.647Z,3.80
2023-04-15T04:07:20.036Z,3.90
2023-04-15T04:10:07.993Z,3.90
2023-04-15T04:12:55.286Z,3.90
2023-04-15T04:15:42.619Z,3.90
2023-04-15T04:18:30.172Z,3.90
2023-04-15T04:21:17.659Z,3.70
2023-04-15T04:24:05.055Z,3.60
2023-04-15T04:26:52.328Z,3.70
2023-04-15T04:29:39.596Z,3.70
2023-04-15T04:32:27.031Z,3.80
2023-04-15T04:35:14.473Z,3.70
2023-04-15T04:38:01.790Z,3.70
2023-04-15T04:40:49.076Z,3.70
2023-04-15T04:43:36.388Z,3.60
2023-04-15T04:46:24.043Z,3.50
2023-04-15T04:49:11.346Z,3.50
2023-04-15T04:51:58.692Z,3.40
2023-04-15T04:54:46.091Z,3.30
2023-04-15T04:57:33.372Z,3.30
2023-04-15T05:00:20.855Z,3.20
2023-04-15T05:03:08.285Z,3.30
2023-04-15T05:05:56.179Z,3.40
2023-04-15T05:08:43.487Z,3.40
2023-04-15T05:11:31.130Z,3.40
2023-04-15T05:14:18.381Z,3.30
2023-04-15T05:17:05.856Z,3.30
2023-04-15T05:19:54.076Z,3.40
2023-04-15T05:22:41.617Z,3.40
2023-04-15T05:25:29.017Z,3.50
2023-04-15T05:28:16.616Z,3.50
2023-04-15T05:31:04.155Z,3.60
2023-04-15T05:33:51.499Z,3.50
2023-04-15T05:36:38.982Z,3.50
2023-04-15T05:39:26.753Z,3.50
2023-04-15T05:42:14.209Z,3.80
2023-04-15T05:45:01.886Z,3.90
2023-04-15T05:47:51.062Z,3.80
2023-04-15T05:50:40.987Z,3.80
2023-04-15T05:53:28.291Z,4.20
2023-04-15T05:56:15.834Z,4.30
2023-04-15T05:59:03.964Z,4.30
2023-04-15T06:01:52.335Z,4.40
2023-04-15T06:04:39.764Z,4.50
2023-04-15T06:07:27.058Z,4.60
2023-04-15T06:10:14.294Z,4.60
2023-04-15T06:13:01.616Z,4.80
2023-04-15T06:15:49.617Z,4.90
2023-04-15T06:18:37.009Z,4.80
2023-04-15T06:21:24.298Z,5.00
2023-04-15T06:24:11.779Z,5.20
2023-04-15T06:26:59.072Z,5.30
2023-04-15T06:29:46.356Z,5.50
2023-04-15T06:32:33.860Z,5.50
2023-04-15T06:35:21.435Z,5.50
2023-04-15T06:38:08.712Z,5.80
2023-04-15T06:40:56.003Z,5.80
2023-04-15T06:43:43.435Z,6.00
2023-04-15T06:46:30.977Z,6.30
2023-04-15T06:49:18.378Z,6.40
2023-04-15T06:52:05.707Z,6.60
2023-04-15T06:54:53.662Z,7.00
2023-04-15T06:57:41.136Z,7.40
2023-04-15T07:00:28.857Z,7.50
2023-04-15T07:03:16.325Z,7.70
2023-04-15T07:06:06.621Z,7.60
2023-04-15T07:08:56.909Z,8.10
2023-04-15T07:11:44.611Z,7.90
2023-04-15T07:14:31.957Z,7.70
2023-04-15T07:17:19.437Z,7.70
2023-04-15T07:20:07.071Z,8.10
2023-04-15T07:22:54.315Z,8.50
2023-04-15T07:25:41.735Z,8.80
2023-04-15T07:28:29.095Z,9.30
2023-04-15T07:31:17.317Z,9.50
2023-04-15T07:34:05.270Z,8.90
2023-04-15T07:36:55.252Z,9.60
2023-04-15T07:39:43.820Z,9.90
2023-04-15T07:42:31.292Z,10.10
2023-04-15T07:45:18.637Z,10.30
2023-04-15T07:48:06.861Z,10.30
2023-04-15T07:50:54.160Z,10.50
2023-04-15T07:53:42.408Z,10.30
2023-04-15T07:56:29.936Z,9.60
2023-04-15T07:59:18.017Z,9.90
2023-04-15T08:02:05.318Z,10.40
2023-04-15T08:04:53.540Z,11.20
2023-04-15T08:07:41.037Z,11.70
2023-04-15T08:10:29.497Z,11.80
2023-04-15T08:13:17.254Z,12.30
2023-04-15T08:16:15.529Z,12.70
2023-04-15T08:19:03.929Z,13.20
2023-04-15T08:21:52.155Z,13.20
2023-04-15T08:24:39.366Z,13.70
2023-04-15T08:27:27.200Z,13.90
2023-04-15T08:30:14.672Z,13.70
2023-04-15T08:33:02.280Z,13.20
2023-04-15T08:35:49.710Z,13.10
2023-04-15T08:38:37.480Z,12.80
2023-04-15T08:41:25.578Z,12.90
2023-04-15T08:44:13.697Z,12.40
2023-04-15T08:47:01.866Z,12.80
2023-04-15T08:49:53.979Z,13.70
2023-04-15T08:52:41.411Z,14.40
2023-04-15T08:55:30.925Z,13.60
2023-04-15T08:58:19.210Z,13.40
2023-04-15T09:01:06.646Z,13.80
2023-04-15T09:03:57.319Z,14.50
2023-04-15T09:06:44.959Z,15.20
2023-04-15T09:09:32.911Z,17.10
2023-04-15T09:12:20.277Z,18.90
2023-04-15T09:15:08.968Z,18.50
2023-04-15T09:17:56.888Z,21.20
2023-04-15T09:20:44.197Z,21.30
2023-04-15T09:23:32.304Z,20.20
2023-04-15T09:26:19.579Z,20.30
2023-04-15T09:29:10.685Z,20.20
2023-04-15T09:32:09.166Z,19.30
2023-04-15T09:34:56.708Z,18.90
2023-04-15T09:37:43.992Z,18.30
2023-04-15T09:40:35.302Z,18.20
2023-04-15T09:43:23.012Z,17.50
2023-04-15T09:46:10.576Z,17.00
2023-04-15T09:49:07.905Z,16.90
2023-04-15T09:52:05.705Z,17.30
2023-04-15T09:54:57.714Z,18.10
2023-04-15T09:57:47.219Z,19.20
2023-04-15T10:00:34.873Z,18.60
2023-04-15T10:03:23.419Z,18.70
2023-04-15T10:06:11.038Z,19.00
2023-04-15T10:08:59.204Z,17.70
2023-04-15T10:11:47.669Z,17.30
2023-04-15T10:14:35.680Z,17.20
2023-04-15T10:17:23.690Z,17.80
2023-04-15T10:20:13.067Z,17.40
2023-04-15T10:23:01.235Z,16.80
2023-04-15T10:25:49.228Z,17.50
2023-04-15T10:28:36.758Z,18.50
2023-04-15T10:31:24.253Z,19.10
2023-04-15T10:34:12.511Z,19.20
2023-04-15T10:37:02.644Z,19.40
2023-04-15T10:39:50.838Z,19.30
2023-04-15T10:42:38.165Z,18.80
2023-04-15T10:45:27.106Z,18.30
2023-04-15T10:48:16.362Z,18.70
2023-04-15T10:51:03.877Z,18.40
2023-04-15T10:53:51.134Z,18.20
2023-04-15T10:56:38.604Z,17.70
2023-04-15T10:59:25.983Z,17.00
2023-04-15T11:02:13.499Z,16.40
2023-04-15T11:05:01.993Z,15.80
2023-04-15T11:07:51.193Z,15.20
2023-04-15T11:10:38.473Z,15.10
2023-04-15T11:13:27.354Z,15.10
2023-04-15T11:16:14.751Z,15.00
2023-04-15T11:19:02.847Z,14.60
2023-04-15T11:21:50.213Z,14.60
2023-04-15T11:24:37.569Z,14.60
2023-04-15T11:27:24.891Z,14.60
2023-04-15T11:30:38.588Z,15.20
2023-04-15T11:33:26.095Z,15.90
2023-04-15T11:36:13.952Z,17.30
2023-04-15T11:39:01.256Z,17.60
2023-04-15T11:41:48.621Z,17.20
2023-04-15T11:44:36.039Z,16.80
2023-04-15T11:47:24.021Z,16.60
2023-04-15T11:50:16.638Z,15.90
2023-04-15T11:53:07.642Z,16.40
2023-04-15T11:55:55.752Z,16.40
2023-04-15T11:58:43.579Z,17.20
2023-04-15T12:01:35.260Z,17.10
2023-04-15T12:04:25.718Z,16.90
2023-04-15T12:07:13.334Z,16.30
2023-04-15T12:10:00.821Z,15.70
2023-04-15T12:12:52.713Z,15.50
2023-04-15T12:15:40.144Z,15.10
2023-04-15T12:18:27.402Z,15.10
2023-04-15T12:21:14.763Z,15.10
2023-04-15T12:24:03.409Z,15.20
2023-04-15T12:26:53.199Z,15.00
2023-04-15T12:29:41.291Z,14.50
2023-04-15T12:32:29.200Z,14.40
2023-04-15T12:35:16.793Z,14.20
2023-04-15T12:38:04.059Z,14.30
2023-04-15T12:40:51.600Z,14.40
2023-04-15T12:43:38.903Z,14.20
2023-04-15T12:46:27.319Z,14.10
2023-04-15T12:49:16.080Z,13.90
2023-04-15T12:52:03.814Z,13.50
2023-04-15T12:54:51.307Z,13.30
2023-04-15T12:57:38.546Z,13.40
2023-04-15T13:00:25.878Z,13.40
2023-04-15T13:03:13.392Z,13.10
2023-04-15T13:06:02.387Z,13.10
2023-04-15T13:08:58.303Z,13.10
2023-04-15T13:11:46.467Z,13.30
2023-04-15T13:14:33.787Z,13.30
2023-04-15T13:17:22.148Z,13.60
2023-04-15T13:20:10.821Z,13.30
2023-04-15T13:22:58.165Z,13.30
2023-04-15T13:25:45.555Z,13.40
2023-04-15T13:28:32.832Z,13.50
2023-04-15T13:31:20.166Z,13.30
2023-04-15T13:34:07.755Z,13.40
2023-04-15T13:36:55.437Z,13.70
2023-04-15T13:39:42.702Z,13.80
2023-04-15T13:42:30.066Z,13.60
2023-04-15T13:45:17.361Z,13.60
2023-04-15T13:48:04.695Z,13.50
2023-04-15T13:50:52.036Z,13.40
2023-04-15T13:53:39.757Z,13.60
2023-04-15T13:56:27.352Z,13.60
2023-04-15T13:59:14.643Z,13.50
2023-04-15T14:02:02.343Z,13.40
2023-04-15T14:04:49.816Z,13.40
2023-04-15T14:07:37.382Z,13.20
2023-04-15T14:10:24.646Z,13.40
2023-04-15T14:13:11.931Z,13.30
2023-04-15T14:15:59.281Z,13.40
2023-04-15T14:18:46.570Z,13.50
2023-04-15T14:21:33.860Z,13.40
2023-04-15T14:24:21.113Z,13.20
2023-04-15T14:27:08.975Z,13.00
2023-04-15T14:29:57.887Z,13.00
2023-04-15T14:32:45.230Z,12.80
2023-04-15T14:35:33.744Z,12.70
2023-04-15T14:38:22.728Z,12.80
2023-04-15T14:41:10.230Z,12.60
2023-04-15T14:43:58.666Z,12.30
2023-04-15T14:46:46.023Z,12.30
2023-04-15T14:49:33.399Z,12.10
2023-04-15T14:52:20.780Z,11.90
2023-04-15T14:55:10.521Z,11.80
2023-04-15T14:57:57.785Z,11.70
2023-04-15T15:00:45.198Z,11.70
2023-04-15T15:03:32.505Z,11.70
2023-04-15T15:06:21.025Z,11.60
2023-04-15T15:09:08.616Z,11.40
2023-04-15T15:11:57.403Z,11.30
2023-04-15T15:14:45.405Z,11.20
2023-04-15T15:17:32.842Z,11.00
2023-04-15T15:20:20.366Z,11.00
2023-04-15T15:23:07.708Z,10.90
2023-04-15T15:25:55.029Z,11.00
2023-04-15T15:28:42.521Z,11.10
2023-04-15T15:31:29.874Z,11.20
2023-04-15T15:34:17.288Z,11.20
2023-04-15T15:37:04.547Z,11.30
2023-04-15T15:39:52.260Z,11.30
2023-04-15T15:42:39.554Z,11.40
2023-04-15T15:45:27.520Z,11.20
2023-04-15T15:48:14.928Z,11.10
2023-04-15T15:51:04.295Z,11.00
2023-04-15T15:53:51.650Z,10.90
2023-04-15T15:56:39.571Z,10.80
2023-04-15T15:59:26.832Z,10.40
2023-04-15T16:02:14.513Z,10.30
2023-04-15T16:05:02.109Z,10.50
2023-04-15T16:07:49.720Z,10.50
2023-04-15T16:10:37.896Z,10.70
2023-04-15T16:13:25.293Z,10.40
2023-04-15T16:16:12.829Z,10.10
2023-04-15T16:19:00.164Z,10.00
2023-04-15T16:21:47.608Z,10.00
2023-04-15T16:24:35.004Z,9.90
2023-04-15T16:27:22.301Z,9.80
2023-04-15T16:30:10.161Z,9.80
2023-04-15T16:32:57.695Z,9.70
2023-04-15T16:35:45.050Z,9.60
2023-04-15T16:38:32.297Z,9.60
2023-04-15T16:41:19.557Z,9.60
2023-04-15T16:44:08.533Z,9.60
2023-04-15T16:46:56.455Z,9.60
2023-04-15T16:49:43.746Z,9.70
2023-04-15T16:52:31.040Z,9.60
2023-04-15T16:55:18.479Z,9.60
2023-04-15T16:58:07.969Z,9.50
2023-04-15T17:00:56.041Z,9.50
2023-04-15T17:03:43.601Z,9.60
2023-04-15T17:06:31.621Z,9.50
2023-04-15T17:09:18.862Z,9.50
2023-04-15T17:12:06.752Z,9.60
2023-04-15T17:14:54.093Z,9.60
2023-04-15T17:17:41.481Z,9.60
2023-04-15T17:20:29.766Z,9.60
2023-04-15T17:23:17.159Z,9.70
2023-04-15T17:26:04.449Z,9.70
2023-04-15T17:28:51.820Z,9.70
2023-04-15T17:31:39.313Z,9.70
2023-04-15T17:34:50.191Z,9.40
2023-04-15T17:37:36.394Z,9.40
2023-04-15T17:40:23.698Z,9.30
2023-04-15T17:43:11.084Z,9.20
2023-04-15T17:45:58.772Z,9.10
2023-04-15T17:48:46.488Z,9.00
2023-04-15T17:51:33.729Z,9.10
2023-04-15T17:54:27.170Z,9.10
2023-04-15T17:57:14.839Z,9.00
2023-04-15T18:00:02.378Z,8.90
2023-04-15T18:02:59.991Z,8.90
2023-04-15T18:05:47.548Z,8.90
2023-04-15T18:08:34.864Z,8.70
2023-04-15T18:11:22.121Z,8.70
2023-04-15T18:14:09.938Z,8.60
2023-04-15T18:16:58.547Z,8.50
2023-04-15T18:19:46.508Z,9.40
2023-04-15T18:22:33.768Z,8.60
2023-04-15T18:25:21.174Z,8.70
2023-04-15T18:28:08.862Z,8.60
2023-04-15T18:30:56.700Z,8.50
2023-04-15T18:33:43.991Z,8.40
2023-04-15T18:36:31.821Z,8.50
2023-04-15T18:39:19.123Z,8.50
2023-04-15T18:42:06.451Z,8.40
2023-04-15T18:44:53.910Z,8.40
2023-04-15T18:47:41.768Z,8.40
2023-04-15T18:50:29.055Z,8.40
2023-04-15T18:53:16.476Z,8.30
2023-04-15T18:56:03.832Z,8.40
2023-04-15T18:59:22.983Z,8.40
2023-04-15T19:01:59.661Z,8.30
2023-04-15T19:04:47.031Z,8.50
2023-04-15T19:07:34.925Z,8.50
2023-04-15T19:10:23.258Z,8.40
2023-04-15T19:13:10.704Z,8.40
2023-04-15T19:15:57.951Z,8.40
2023-04-15T19:18:45.227Z,8.50
2023-04-15T19:21:32.634Z,8.40
2023-04-15T19:24:19.964Z,8.40
2023-04-15T19:27:07.245Z,8.50
2023-04-15T19:29:54.524Z,8.50
2023-04-15T19:32:41.870Z,8.40
2023-04-15T19:35:29.160Z,8.40
2023-04-15T19:38:16.960Z,8.40
2023-04-15T19:41:04.546Z,8.40
2023-04-15T19:43:52.018Z,8.40
2023-04-15T19:46:40.032Z,8.40
2023-04-15T19:49:27.441Z,8.40
2023-04-15T19:52:14.834Z,8.20
2023-04-15T19:55:02.144Z,8.30
2023-04-15T19:57:49.415Z,8.30
2023-04-15T20:00:36.960Z,8.30
2023-04-15T20:03:24.483Z,8.40
2023-04-15T20:06:11.848Z,8.50
2023-04-15T20:08:59.240Z,8.40
2023-04-15T20:12:47.849Z,8.40
2023-04-15T20:14:53.825Z,8.40
2023-04-15T20:17:41.120Z,8.40
2023-04-15T20:20:28.490Z,8.40
2023-04-15T20:23:16.090Z,8.40
2023-04-15T20:26:03.326Z,8.50
2023-04-15T20:28:51.186Z,8.40
2023-04-15T20:31:38.657Z,8.30
2023-04-15T20:34:26.168Z,8.30
2023-04-15T20:37:13.447Z,8.40
2023-04-15T20:40:00.929Z,8.50
2023-04-15T20:42:48.208Z,8.40
2023-04-15T20:45:35.653Z,8.40
2023-04-15T20:48:23.426Z,8.30
2023-04-15T20:51:10.720Z,8.40
2023-04-15T20:53:58.008Z,8.30
2023-04-15T20:56:45.394Z,8.30
2023-04-15T20:59:34.939Z,8.40
2023-04-15T21:02:23.656Z,8.40
2023-04-15T21:05:11.482Z,8.40
2023-04-15T21:07:58.738Z,8.30
2023-04-15T21:10:46.101Z,8.40
2023-04-15T21:13:33.838Z,8.50
2023-04-15T21:16:21.220Z,8.60
2023-04-15T21:19:09.542Z,8.50
2023-04-15T21:21:56.831Z,8.50
2023-04-15T21:24:44.255Z,8.60
2023-04-15T21:27:31.524Z,8.60
2023-04-15T21:30:18.839Z,8.60
2023-04-15T21:33:06.325Z,8.60
2023-04-15T21:35:54.298Z,8.60
2023-04-15T21:38:41.610Z,8.60
2023-04-15T21:41:29.179Z,8.60
2023-04-15T21:44:16.574Z,8.50
2023-04-15T21:47:03.805Z,8.60
2023-04-15T21:49:51.508Z,8.60
2023-04-15T21:52:38.958Z,8.60
2023-04-15T21:55:26.270Z,8.60
2023-04-15T21:58:13.532Z,8.60
2023-04-15T22:01:00.907Z,8.50
2023-04-15T22:03:48.418Z,8.60
2023-04-15T22:06:36.154Z,8.60
2023-04-15T22:09:23.579Z,8.60
2023-04-15T22:12:10.817Z,8.70
2023-04-15T22:14:58.118Z,8.60
2023-04-15T22:17:45.715Z,8.60
2023-04-15T22:20:33.083Z,8.50
2023-04-15T22:23:20.633Z,8.50
2023-04-15T22:26:07.927Z,8.60
2023-04-15T22:28:55.141Z,8.50
2023-04-15T22:31:42.663Z,8.60
2023-04-15T22:34:30.033Z,8.60
2023-04-15T22:37:17.264Z,8.60
2023-04-15T22:40:04.772Z,8.60
2023-04-15T22:42:52.019Z,8.60
2023-04-15T22:45:39.262Z,8.50
2023-04-15T22:48:26.566Z,8.70
2023-04-15T22:51:20.839Z,8.70
2023-04-15T22:54:08.080Z,8.60
2023-04-15T22:56:56.530Z,8.60
2023-04-15T22:59:43.864Z,8.60
2023-04-15T23:02:31.288Z,8.60
2023-04-15T23:05:18.693Z,8.60
2023-04-15T23:08:05.982Z,8.50
2023-04-15T23:10:53.321Z,8.50
2023-04-15T23:13:40.652Z,8.50
2023-04-15T23:16:27.990Z,8.50
2023-04-15T23:19:15.834Z,8.50
2023-04-15T23:22:03.460Z,8.50
2023-04-15T23:24:50.743Z,8.50
2023-04-15T23:27:38.043Z,8.50
2023-04-15T23:30:25.580Z,8.40
2023-04-15T23:33:12.926Z,8.40
2023-04-15T23:36:00.151Z,8.30
2023-04-15T23:38:48.029Z,8.40
2023-04-15T23:41:36.627Z,9.00
2023-04-15T23:44:23.915Z,8.40
2023-04-15T23:47:11.221Z,8.40
2023-04-15T23:49:58.611Z,8.30
2023-04-15T23:52:46.105Z,8.30
2023-04-15T23:55:33.407Z,8.20
2023-04-15T23:58:20.929Z,8.30
